Quiberon — FNQY — position and weather

sailwx.info

Track history (hours):
 
Tides and Currents Weather Stations Pressure Air Temp Water Temp Dewpoint Dewpoint Depression Visibility Wind Speed Wind Dir Waves Ship Positions

Quiberon

Operator: Brittany Ferries

Last reported at 2017-Nov-22 19:25 UTC. Time now 2017-Nov-23 22:30 UTC.
Position N 44°55' W 000°32'.

Length 25 m; draft 4.8 m.

Type: Tug. MMSI: 228296800.

Date/timePositionNaut miles runAvg speedWind from/ knotsBaromVisibWave heightAir tempDewpointWater temp
2017-Nov-22 19:25N 44°55' W 000°32'  
2017-Nov-19 08:38N 44°53' W 000°32'0 0.0
2017-Nov-19 08:25N 44°53' W 000°32'0 0.0
2017-Nov-19 07:52N 44°53' W 000°32'0 0.0
2017-Nov-19 06:32N 44°53' W 000°32'1 2.9
2017-Nov-19 06:09N 44°54' W 000°32'211.2
2017-Nov-19 05:57N 44°56' W 000°33'4 8.4
2017-Nov-19 05:30N 45°00' W 000°34'0 0.1
2017-Nov-19 05:00N 45°00' W 000°34'0 0.2
2017-Nov-19 04:30N 45°00' W 000°34'0 0.0
2017-Nov-19 04:00N 45°00' W 000°34'0 0.0
2017-Nov-19 03:30N 45°00' W 000°34'0 0.0
2017-Nov-19 03:00N 45°00' W 000°34'0 0.0
2017-Nov-19 02:30N 45°00' W 000°34'0 0.0
2017-Nov-19 02:00N 45°00' W 000°34'0 0.0
2017-Nov-19 01:30N 45°00' W 000°34'0 0.0
2017-Nov-19 01:00N 45°00' W 000°34'0 0.0
2017-Nov-19 00:30N 45°00' W 000°34'0 0.0
2017-Nov-19 00:01N 45°00' W 000°34'0 0.0
2017-Nov-18 23:30N 45°00' W 000°34'0 0.0
2017-Nov-18 23:01N 45°00' W 000°34'0 0.0
2017-Nov-18 22:30N 45°00' W 000°34'0 0.0
2017-Nov-18 21:52N 45°00' W 000°34'0 0.0
2017-Nov-18 21:23N 45°00' W 000°34'0 0.0
2017-Nov-18 20:37N 45°00' W 000°34'0 0.0
2017-Nov-18 20:17N 45°00' W 000°34'7 0.2
2017-Nov-17 06:15N 44°53' W 000°32'2 5.8
2017-Nov-17 05:58N 44°55' W 000°33'0 0.5
2017-Nov-17 05:29N 44°55' W 000°33'0 0.0
2017-Nov-17 05:00N 44°55' W 000°33'0 0.0
2017-Nov-17 04:30N 44°55' W 000°33'1 2.8
2017-Nov-17 04:00N 44°53' W 000°32'0 0.0
2017-Nov-17 03:29N 44°53' W 000°32'0 0.0
2017-Nov-17 02:48N 44°53' W 000°32'0 0.0
2017-Nov-17 02:19N 44°53' W 000°32'0 0.0
2017-Nov-17 01:54N 44°53' W 000°32'7 0.7
2017-Nov-16 16:14N 45°00' W 000°34'  
Track history (hours):
 
Tides and Currents Weather Stations Pressure Air Temp Water Temp Dewpoint Dewpoint Depression Visibility Wind Speed Wind Dir Waves Ship Positions

Quiberon

Operator: Brittany Ferries

Last reported at 2017-Nov-22 19:25 UTC. Time now 2017-Nov-23 22:30 UTC.
Position N 44°55' W 000°32'.

Length 25 m; draft 4.8 m.

Type: Tug. MMSI: 228296800.

Date/timePositionNaut miles runAvg speedWind from/ knotsBaromVisibWave heightAir tempDewpointWater temp
2017-Nov-22 19:25N 44°55' W 000°32'  
2017-Nov-19 08:38N 44°53' W 000°32'0 0.0
2017-Nov-19 08:25N 44°53' W 000°32'0 0.0
2017-Nov-19 07:52N 44°53' W 000°32'0 0.0
2017-Nov-19 06:32N 44°53' W 000°32'1 2.9
2017-Nov-19 06:09N 44°54' W 000°32'211.2
2017-Nov-19 05:57N 44°56' W 000°33'4 8.4
2017-Nov-19 05:30N 45°00' W 000°34'0 0.1
2017-Nov-19 05:00N 45°00' W 000°34'0 0.2
2017-Nov-19 04:30N 45°00' W 000°34'0 0.0
2017-Nov-19 04:00N 45°00' W 000°34'0 0.0
2017-Nov-19 03:30N 45°00' W 000°34'0 0.0
2017-Nov-19 03:00N 45°00' W 000°34'0 0.0
2017-Nov-19 02:30N 45°00' W 000°34'0 0.0
2017-Nov-19 02:00N 45°00' W 000°34'0 0.0
2017-Nov-19 01:30N 45°00' W 000°34'0 0.0
2017-Nov-19 01:00N 45°00' W 000°34'0 0.0
2017-Nov-19 00:30N 45°00' W 000°34'0 0.0
2017-Nov-19 00:01N 45°00' W 000°34'0 0.0
2017-Nov-18 23:30N 45°00' W 000°34'0 0.0
2017-Nov-18 23:01N 45°00' W 000°34'0 0.0
2017-Nov-18 22:30N 45°00' W 000°34'0 0.0
2017-Nov-18 21:52N 45°00' W 000°34'0 0.0
2017-Nov-18 21:23N 45°00' W 000°34'0 0.0
2017-Nov-18 20:37N 45°00' W 000°34'0 0.0
2017-Nov-18 20:17N 45°00' W 000°34'7 0.2
2017-Nov-17 06:15N 44°53' W 000°32'2 5.8
2017-Nov-17 05:58N 44°55' W 000°33'0 0.5
2017-Nov-17 05:29N 44°55' W 000°33'0 0.0
2017-Nov-17 05:00N 44°55' W 000°33'0 0.0
2017-Nov-17 04:30N 44°55' W 000°33'1 2.8
2017-Nov-17 04:00N 44°53' W 000°32'0 0.0
2017-Nov-17 03:29N 44°53' W 000°32'0 0.0
2017-Nov-17 02:48N 44°53' W 000°32'0 0.0
2017-Nov-17 02:19N 44°53' W 000°32'0 0.0
2017-Nov-17 01:54N 44°53' W 000°32'7 0.7
2017-Nov-16 16:14N 45°00' W 000°34'  

Dump ship's entire track history